createdAt,value
2023-04-23T00:10:43.743Z,6.68
2023-04-23T00:16:32.729Z,6.15
2023-04-23T00:21:48.985Z,7.88
2023-04-23T00:27:24.905Z,7.53
2023-04-23T00:33:03.952Z,7.68
2023-04-23T00:38:40.772Z,6.57
2023-04-23T00:50:15.980Z,7.53
2023-04-23T01:01:33.458Z,9.93
2023-04-23T01:07:24.752Z,11.30
2023-04-23T01:13:07.563Z,11.43
2023-04-23T01:25:02.943Z,10.63
2023-04-23T01:30:30.812Z,9.70
2023-04-23T01:41:49.599Z,8.38
2023-04-23T01:47:11.725Z,9.05
2023-04-23T01:52:38.007Z,9.18
2023-04-23T01:57:55.291Z,8.90
2023-04-23T02:15:28.891Z,7.68
2023-04-23T02:21:12.894Z,20.48
2023-04-23T02:27:13.555Z,12.05
2023-04-23T02:32:36.017Z,12.25
2023-04-23T02:38:18.957Z,10.05
2023-04-23T02:44:03.840Z,9.70
2023-04-23T02:49:32.075Z,9.35
2023-04-23T03:00:17.494Z,8.02
2023-04-23T03:06:10.303Z,8.48
2023-04-23T03:11:25.738Z,7.15
2023-04-23T03:28:10.888Z,7.80
2023-04-23T03:33:55.108Z,9.45
2023-04-23T03:39:54.664Z,6.72
2023-04-23T03:45:21.082Z,7.82
2023-04-23T03:50:46.446Z,6.82
2023-04-23T03:57:04.708Z,7.82
2023-04-23T04:02:55.634Z,13.02
2023-04-23T04:08:22.426Z,12.68
2023-04-23T04:13:41.692Z,6.47
2023-04-23T04:18:56.708Z,6.63
2023-04-23T04:24:40.352Z,7.10
2023-04-23T04:30:07.650Z,5.90
2023-04-23T04:35:39.881Z,6.85
2023-04-23T04:41:09.131Z,7.55
2023-04-23T04:46:42.549Z,6.15
2023-04-23T04:57:45.992Z,5.78
2023-04-23T05:09:58.048Z,6.22
2023-04-23T05:15:28.758Z,4.43
2023-04-23T05:21:04.552Z,6.15
2023-04-23T05:50:15.866Z,6.43
2023-04-23T06:00:58.264Z,5.55
2023-04-23T06:06:58.299Z,5.18
2023-04-23T06:13:10.341Z,3.40
2023-04-23T06:19:37.346Z,5.20
2023-04-23T06:31:10.984Z,6.00
2023-04-23T06:36:33.644Z,4.07
2023-04-23T06:41:56.185Z,5.47
2023-04-23T06:59:16.865Z,5.47
2023-04-23T07:10:44.845Z,5.32
2023-04-23T07:27:48.358Z,7.00
2023-04-23T07:44:42.033Z,7.40
2023-04-23T07:50:22.859Z,7.88
2023-04-23T07:56:03.042Z,6.68
2023-04-23T08:18:30.332Z,7.45
2023-04-23T08:25:02.720Z,6.78
2023-04-23T08:30:21.622Z,7.88
2023-04-23T08:36:05.663Z,9.52
2023-04-23T08:48:05.607Z,11.15
2023-04-23T08:53:37.887Z,8.95
2023-04-23T09:05:19.202Z,8.25
2023-04-23T09:11:45.065Z,8.00
2023-04-23T09:17:26.658Z,8.75
2023-04-23T09:22:57.349Z,8.18
2023-04-23T09:40:26.094Z,8.07
2023-04-23T09:46:26.496Z,6.82
2023-04-23T09:52:16.126Z,4.63
2023-04-23T09:58:10.786Z,4.47
2023-04-23T10:03:42.014Z,5.13
2023-04-23T10:20:40.299Z,4.95
2023-04-23T10:26:06.409Z,5.18
2023-04-23T10:32:11.239Z,5.55
2023-04-23T10:38:26.448Z,4.68
2023-04-23T10:43:59.350Z,3.25
2023-04-23T10:49:18.812Z,3.97
2023-04-23T10:55:18.770Z,5.43
2023-04-23T11:01:03.174Z,3.67
2023-04-23T11:06:18.510Z,3.70
2023-04-23T11:12:04.024Z,4.40
2023-04-23T11:23:38.117Z,3.80
2023-04-23T11:34:21.610Z,3.65
2023-04-23T11:40:03.849Z,3.72
2023-04-23T11:51:07.029Z,2.17
2023-04-23T11:56:51.692Z,3.58
2023-04-23T12:02:45.520Z,3.10
2023-04-23T12:14:34.277Z,2.78
2023-04-23T12:20:02.393Z,4.28
2023-04-23T12:25:45.221Z,4.95
2023-04-23T12:31:36.180Z,3.33
2023-04-23T12:37:27.350Z,4.78
2023-04-23T12:42:48.081Z,4.15
2023-04-23T12:48:18.873Z,2.90
2023-04-23T12:53:27.013Z,4.07
2023-04-23T12:58:31.330Z,3.28
2023-04-23T13:03:33.802Z,4.35
2023-04-23T13:08:36.489Z,3.55
2023-04-23T13:13:39.777Z,4.30
2023-04-23T13:18:42.077Z,4.63
2023-04-23T13:24:02.862Z,3.28
2023-04-23T13:29:05.428Z,2.88
2023-04-23T13:34:07.721Z,2.97
2023-04-23T13:39:12.513Z,3.05
2023-04-23T13:44:16.020Z,3.83
2023-04-23T13:49:18.524Z,3.78
2023-04-23T13:54:20.999Z,4.00
2023-04-23T13:59:24.122Z,3.22
2023-04-23T14:04:44.898Z,3.13
2023-04-23T14:09:47.726Z,3.30
2023-04-23T14:14:50.587Z,3.70
2023-04-23T14:19:53.580Z,2.25
2023-04-23T14:25:03.633Z,3.60
2023-04-23T14:30:14.016Z,3.90
2023-04-23T14:35:43.195Z,3.95
2023-04-23T14:41:04.580Z,4.53
2023-04-23T14:46:08.547Z,3.30
2023-04-23T14:51:11.133Z,4.78
2023-04-23T14:56:13.589Z,3.45
2023-04-23T15:01:16.562Z,3.22
2023-04-23T15:06:38.807Z,4.85
2023-04-23T15:11:42.424Z,3.22
2023-04-23T15:16:49.001Z,3.63
2023-04-23T15:21:53.541Z,4.35
2023-04-23T15:26:58.408Z,5.47
2023-04-23T15:32:00.848Z,5.50
2023-04-23T15:37:03.592Z,6.38
2023-04-23T15:42:06.293Z,4.97
2023-04-23T15:47:08.697Z,7.20
2023-04-23T15:52:11.494Z,11.40
2023-04-23T15:57:14.040Z,10.80
2023-04-23T16:02:17.592Z,9.07
2023-04-23T16:07:20.155Z,9.25
2023-04-23T16:12:22.589Z,6.22
2023-04-23T16:17:28.363Z,8.48
2023-04-23T16:22:33.717Z,7.45
2023-04-23T16:27:42.386Z,7.20
2023-04-23T16:32:55.058Z,6.35
2023-04-23T16:38:09.009Z,6.57
2023-04-23T16:43:26.538Z,5.68
2023-04-23T16:48:47.322Z,7.50
2023-04-23T16:54:25.774Z,6.05
2023-04-23T16:59:42.208Z,4.97
2023-04-23T17:05:09.425Z,5.68
2023-04-23T17:11:18.438Z,5.35
2023-04-23T17:22:06.376Z,5.82
2023-04-23T17:27:29.537Z,7.45
2023-04-23T17:33:19.363Z,5.10
2023-04-23T17:39:14.529Z,5.80
2023-04-23T17:45:46.260Z,5.03
2023-04-23T17:51:16.659Z,5.25
2023-04-23T17:56:48.614Z,6.35
2023-04-23T18:03:18.717Z,5.88
2023-04-23T18:14:30.444Z,5.35
2023-04-23T18:19:54.317Z,5.28
2023-04-23T18:26:05.195Z,6.78
2023-04-23T18:31:34.250Z,5.75
2023-04-23T18:37:01.217Z,6.68
2023-04-23T18:42:46.139Z,6.85
2023-04-23T18:48:31.713Z,5.85
2023-04-23T18:54:13.255Z,7.28
2023-04-23T19:05:45.585Z,6.20
2023-04-23T19:11:53.125Z,9.18
2023-04-23T19:17:18.545Z,9.90
2023-04-23T19:29:38.426Z,9.93
2023-04-23T19:41:40.207Z,11.43
2023-04-23T19:47:10.736Z,10.93
2023-04-23T19:52:48.493Z,7.25
2023-04-23T20:04:54.837Z,10.90
2023-04-23T20:10:50.035Z,8.63
2023-04-23T20:23:20.503Z,9.93
2023-04-23T20:29:06.154Z,9.40
2023-04-23T20:41:12.966Z,12.02
2023-04-23T20:58:44.932Z,9.32
2023-04-23T21:04:18.632Z,9.55
2023-04-23T21:09:50.851Z,8.82
2023-04-23T21:16:02.756Z,9.32
2023-04-23T21:22:40.891Z,10.45
2023-04-23T22:08:57.686Z,25.48
2023-04-23T22:14:52.629Z,29.33
2023-04-23T22:20:21.255Z,29.42
2023-04-23T22:43:48.898Z,27.08
2023-04-23T22:49:19.269Z,29.13
2023-04-23T22:54:50.213Z,30.00
2023-04-23T23:36:12.623Z,29.73
2023-04-23T23:54:28.523Z,38.72
